createdAt,value
2023-03-30T00:01:20.098Z,45.59
2023-03-30T00:03:49.285Z,45.81
2023-03-30T00:06:24.443Z,45.67
2023-03-30T00:08:57.339Z,46.04
2023-03-30T00:11:26.996Z,46.05
2023-03-30T00:13:54.535Z,46.16
2023-03-30T00:16:21.894Z,46.61
2023-03-30T00:18:49.043Z,46.63
2023-03-30T00:21:18.221Z,46.62
2023-03-30T00:23:49.090Z,47.01
2023-03-30T00:26:17.611Z,47.06
2023-03-30T00:28:46.208Z,47.11
2023-03-30T00:31:13.444Z,47.40
2023-03-30T00:33:46.305Z,47.55
2023-03-30T00:36:14.942Z,47.89
2023-03-30T00:38:42.067Z,47.86
2023-03-30T00:41:09.431Z,47.91
2023-03-30T00:43:56.915Z,48.20
2023-03-30T00:46:24.398Z,48.07
2023-03-30T00:48:51.675Z,47.91
2023-03-30T00:51:19.608Z,48.41
2023-03-30T00:53:50.766Z,48.27
2023-03-30T00:56:23.524Z,48.45
2023-03-30T00:58:50.858Z,48.38
2023-03-30T01:01:25.980Z,48.63
2023-03-30T01:03:53.865Z,48.61
2023-03-30T01:06:24.868Z,48.52
2023-03-30T01:08:53.500Z,49.06
2023-03-30T01:11:21.647Z,49.10
2023-03-30T01:14:03.230Z,49.50
2023-03-30T01:16:38.501Z,49.80
2023-03-30T01:19:45.008Z,49.64
2023-03-30T01:22:42.708Z,49.95
2023-03-30T01:25:18.478Z,49.73
2023-03-30T01:28:31.051Z,49.92
2023-03-30T01:31:50.393Z,50.18
2023-03-30T01:34:51.855Z,49.98
2023-03-30T01:37:33.112Z,50.27
2023-03-30T01:40:27.671Z,50.55
2023-03-30T01:43:19.435Z,50.58
2023-03-30T01:46:01.685Z,50.47
2023-03-30T01:48:47.867Z,50.76
2023-03-30T01:51:33.428Z,51.25
2023-03-30T01:54:21.393Z,50.83
2023-03-30T01:56:59.717Z,51.28
2023-03-30T01:59:36.707Z,51.32
2023-03-30T02:02:07.287Z,51.87
2023-03-30T02:04:41.988Z,52.03
2023-03-30T02:07:21.243Z,51.85
2023-03-30T02:09:52.043Z,52.46
2023-03-30T02:12:20.952Z,52.26
2023-03-30T02:14:49.643Z,52.30
2023-03-30T02:17:23.117Z,52.56
2023-03-30T02:19:52.604Z,52.71
2023-03-30T02:22:20.475Z,53.03
2023-03-30T02:24:51.680Z,53.16
2023-03-30T02:27:19.051Z,53.18
2023-03-30T02:29:46.468Z,53.10
2023-03-30T02:32:33.686Z,53.18
2023-03-30T02:35:59.366Z,53.33
2023-03-30T02:39:19.859Z,53.09
2023-03-30T02:42:05.119Z,53.29
2023-03-30T02:44:43.962Z,53.48
2023-03-30T02:47:52.076Z,53.66
2023-03-30T02:50:44.929Z,54.28
2023-03-30T02:53:33.567Z,54.36
2023-03-30T02:56:19.356Z,54.47
2023-03-30T02:58:56.696Z,54.72
2023-03-30T03:01:51.091Z,55.00
2023-03-30T03:04:22.179Z,55.20
2023-03-30T03:06:53.085Z,55.23
2023-03-30T03:09:20.866Z,55.23
2023-03-30T03:11:47.955Z,55.54
2023-03-30T03:14:15.003Z,55.43
2023-03-30T03:16:42.382Z,55.54
2023-03-30T03:19:10.790Z,55.52
2023-03-30T03:21:37.793Z,55.34
2023-03-30T03:24:06.612Z,55.64
2023-03-30T03:26:34.140Z,55.90
2023-03-30T03:29:01.128Z,55.53
2023-03-30T03:31:28.242Z,56.21
2023-03-30T03:33:55.377Z,56.20
2023-03-30T03:36:25.350Z,56.59
2023-03-30T03:38:52.515Z,56.75
2023-03-30T03:41:19.709Z,56.71
2023-03-30T03:43:46.921Z,57.09
2023-03-30T03:46:14.476Z,56.92
2023-03-30T03:48:41.567Z,57.28
2023-03-30T03:51:09.896Z,57.08
2023-03-30T03:53:37.010Z,57.22
2023-03-30T03:56:04.252Z,57.38
2023-03-30T03:58:31.874Z,57.96
2023-03-30T04:01:03.340Z,57.87
2023-03-30T04:03:30.867Z,58.00
2023-03-30T04:06:02.491Z,58.06
2023-03-30T04:08:29.866Z,58.09
2023-03-30T04:11:08.146Z,58.48
2023-03-30T04:13:36.076Z,58.10
2023-03-30T04:16:03.437Z,58.20
2023-03-30T04:18:34.265Z,58.54
2023-03-30T04:21:07.626Z,58.57
2023-03-30T04:23:35.702Z,58.89
2023-03-30T04:26:07.325Z,58.71
2023-03-30T04:28:35.724Z,58.61
2023-03-30T04:31:06.726Z,58.94
2023-03-30T04:33:35.157Z,58.45
2023-03-30T04:36:02.396Z,58.58
2023-03-30T04:38:30.431Z,58.87
2023-03-30T04:41:00.634Z,58.35
2023-03-30T04:43:27.675Z,58.54
2023-03-30T04:45:56.646Z,58.84
2023-03-30T04:48:24.732Z,59.01
2023-03-30T04:50:54.189Z,59.14
2023-03-30T04:53:23.084Z,58.81
2023-03-30T04:55:51.980Z,59.12
2023-03-30T04:58:19.049Z,59.13
2023-03-30T05:00:46.128Z,59.04
2023-03-30T05:03:13.448Z,58.82
2023-03-30T05:05:40.727Z,59.04
2023-03-30T05:08:07.847Z,59.34
2023-03-30T05:10:35.045Z,58.95
2023-03-30T05:13:02.130Z,59.04
2023-03-30T05:15:29.302Z,59.37
2023-03-30T05:17:56.844Z,59.34
2023-03-30T05:20:24.141Z,59.29
2023-03-30T05:22:51.282Z,59.07
2023-03-30T05:25:18.607Z,59.37
2023-03-30T05:27:45.811Z,59.51
2023-03-30T05:30:14.125Z,59.81
2023-03-30T05:32:41.538Z,59.60
2023-03-30T05:35:09.057Z,59.76
2023-03-30T05:37:36.464Z,59.93
2023-03-30T05:40:07.365Z,59.79
2023-03-30T05:42:34.464Z,59.93
2023-03-30T05:45:01.657Z,59.77
2023-03-30T05:47:29.110Z,60.02
2023-03-30T05:49:56.174Z,60.02
2023-03-30T05:52:23.975Z,59.48
2023-03-30T05:54:51.097Z,59.70
2023-03-30T05:57:18.246Z,59.24
2023-03-30T05:59:45.496Z,59.09
2023-03-30T06:02:13.018Z,59.23
2023-03-30T06:04:40.224Z,59.18
2023-03-30T06:07:07.958Z,59.73
2023-03-30T06:09:35.159Z,59.65
2023-03-30T06:12:02.709Z,59.81
2023-03-30T06:14:30.032Z,59.67
2023-03-30T06:16:57.384Z,59.89
2023-03-30T06:19:24.573Z,59.48
2023-03-30T06:21:51.579Z,59.42
2023-03-30T06:24:20.179Z,59.42
2023-03-30T06:26:48.666Z,59.58
2023-03-30T06:29:15.794Z,59.56
2023-03-30T06:31:42.919Z,58.45
2023-03-30T06:34:10.001Z,58.63
2023-03-30T06:36:43.931Z,58.25
2023-03-30T06:39:13.314Z,57.84
2023-03-30T06:41:40.694Z,57.85
2023-03-30T06:44:10.466Z,57.92
2023-03-30T06:46:38.137Z,57.77
2023-03-30T06:49:05.179Z,57.45
2023-03-30T06:51:33.996Z,57.13
2023-03-30T06:54:01.983Z,56.81
2023-03-30T06:56:29.014Z,56.48
2023-03-30T06:58:57.223Z,55.90
2023-03-30T07:01:24.382Z,56.82
2023-03-30T07:03:53.517Z,56.83
2023-03-30T07:06:21.297Z,56.20
2023-03-30T07:08:48.589Z,56.75
2023-03-30T07:11:15.630Z,56.70
2023-03-30T07:13:42.767Z,57.43
2023-03-30T07:16:10.210Z,57.57
2023-03-30T07:18:37.312Z,57.72
2023-03-30T07:21:05.099Z,57.94
2023-03-30T07:23:32.466Z,56.80
2023-03-30T07:25:59.942Z,57.25
2023-03-30T07:28:27.214Z,57.52
2023-03-30T07:30:54.414Z,56.60
2023-03-30T07:33:22.177Z,56.20
2023-03-30T07:35:50.192Z,55.56
2023-03-30T07:38:17.537Z,56.02
2023-03-30T07:40:44.710Z,56.00
2023-03-30T07:43:11.744Z,56.36
2023-03-30T07:45:38.801Z,56.77
2023-03-30T07:48:06.054Z,56.85
2023-03-30T07:50:33.102Z,57.24
2023-03-30T07:53:00.315Z,57.60
2023-03-30T07:55:28.804Z,57.60
2023-03-30T07:57:57.254Z,57.53
2023-03-30T08:00:25.040Z,56.95
2023-03-30T08:02:52.319Z,57.03
2023-03-30T08:05:19.482Z,56.49
2023-03-30T08:07:46.543Z,56.47
2023-03-30T08:10:13.635Z,56.85
2023-03-30T08:12:41.574Z,56.42
2023-03-30T08:15:09.708Z,55.24
2023-03-30T08:17:37.308Z,55.43
2023-03-30T08:20:10.770Z,55.57
2023-03-30T08:22:37.880Z,55.53
2023-03-30T08:25:06.044Z,56.13
2023-03-30T08:27:33.173Z,56.23
2023-03-30T08:30:00.646Z,55.94
2023-03-30T08:32:30.343Z,55.74
2023-03-30T08:34:57.418Z,56.11
2023-03-30T08:37:25.162Z,56.12
2023-03-30T08:39:52.367Z,56.52
2023-03-30T08:42:50.644Z,56.78
2023-03-30T08:45:18.716Z,56.67
2023-03-30T08:47:51.120Z,56.54
2023-03-30T08:50:36.520Z,56.17
2023-03-30T08:53:08.265Z,56.03
2023-03-30T08:55:58.641Z,56.64
2023-03-30T08:58:55.996Z,57.43
2023-03-30T09:01:29.442Z,56.68
2023-03-30T09:04:33.557Z,56.85
2023-03-30T09:07:22.591Z,56.97
2023-03-30T09:09:55.131Z,57.33
2023-03-30T09:12:48.667Z,57.68
2023-03-30T09:15:39.554Z,58.03
2023-03-30T09:18:32.336Z,58.59
2023-03-30T09:21:06.327Z,58.30
2023-03-30T09:23:36.018Z,58.26
2023-03-30T09:26:14.843Z,58.88
2023-03-30T09:29:01.174Z,58.77
2023-03-30T09:31:44.483Z,58.24
2023-03-30T09:34:38.156Z,56.46
2023-03-30T09:37:11.890Z,57.53
2023-03-30T09:39:39.995Z,57.47
2023-03-30T09:43:10.718Z,57.44
2023-03-30T09:45:39.352Z,56.56
2023-03-30T09:48:09.046Z,56.43
2023-03-30T09:50:43.796Z,55.69
2023-03-30T09:53:27.766Z,55.48
2023-03-30T09:56:23.179Z,53.91
2023-03-30T09:58:50.547Z,53.53
2023-03-30T10:01:20.666Z,52.81
2023-03-30T10:04:10.238Z,52.53
2023-03-30T10:06:50.803Z,51.74
2023-03-30T10:09:24.113Z,51.35
2023-03-30T10:11:54.616Z,50.47
2023-03-30T10:14:33.959Z,50.72
2023-03-30T10:17:02.336Z,49.76
2023-03-30T10:19:30.452Z,49.68
2023-03-30T10:21:59.921Z,50.57
2023-03-30T10:24:31.589Z,50.00
2023-03-30T10:27:16.120Z,50.94
2023-03-30T10:29:50.348Z,49.38
2023-03-30T10:32:23.644Z,48.60
2023-03-30T10:35:02.038Z,48.33
2023-03-30T10:37:39.301Z,46.94
2023-03-30T10:40:26.644Z,46.85
2023-03-30T10:42:58.018Z,46.75
2023-03-30T10:45:35.343Z,47.23
2023-03-30T10:48:27.356Z,46.47
2023-03-30T10:51:03.053Z,45.52
2023-03-30T10:53:39.896Z,46.21
2023-03-30T10:56:41.423Z,44.99
2023-03-30T10:59:47.218Z,45.54
2023-03-30T11:02:40.045Z,45.65
2023-03-30T11:05:25.116Z,44.68
2023-03-30T11:08:18.518Z,45.95
2023-03-30T11:10:53.381Z,45.44
2023-03-30T11:13:43.049Z,46.75
2023-03-30T11:16:27.382Z,47.26
2023-03-30T11:19:07.403Z,46.74
2023-03-30T11:22:04.864Z,47.49
2023-03-30T11:24:34.264Z,47.72
2023-03-30T11:27:14.134Z,47.68
2023-03-30T11:30:03.297Z,47.76
2023-03-30T11:33:17.924Z,47.84
2023-03-30T11:36:19.005Z,47.72
2023-03-30T11:39:07.424Z,47.52
2023-03-30T11:41:39.043Z,48.11
2023-03-30T11:44:08.731Z,47.60
2023-03-30T11:47:14.952Z,46.80
2023-03-30T11:50:15.312Z,46.63
2023-03-30T11:53:03.149Z,46.82
2023-03-30T11:56:02.968Z,48.21
2023-03-30T11:58:47.729Z,48.20
2023-03-30T12:01:41.803Z,47.48
2023-03-30T12:04:14.921Z,47.65
2023-03-30T12:07:01.703Z,47.70
2023-03-30T12:10:02.800Z,46.90
2023-03-30T12:12:36.449Z,46.46
2023-03-30T12:15:40.372Z,48.30
2023-03-30T12:18:31.978Z,48.26
2023-03-30T12:21:32.519Z,47.84
2023-03-30T12:24:42.156Z,47.57
2023-03-30T12:27:11.844Z,47.66
2023-03-30T12:30:01.750Z,47.14
2023-03-30T12:32:30.987Z,47.86
2023-03-30T12:34:58.660Z,47.62
2023-03-30T12:37:38.231Z,48.37
2023-03-30T12:40:22.322Z,49.26
2023-03-30T12:43:15.519Z,48.27
2023-03-30T12:46:06.166Z,49.07
2023-03-30T12:49:05.993Z,49.37
2023-03-30T12:51:53.088Z,50.02
2023-03-30T12:55:26.741Z,50.03
2023-03-30T12:58:30.937Z,49.91
2023-03-30T13:01:18.909Z,50.00
2023-03-30T13:04:01.711Z,49.88
2023-03-30T13:06:37.110Z,49.84
2023-03-30T13:09:15.863Z,50.14
2023-03-30T13:12:06.913Z,50.44
2023-03-30T13:14:38.292Z,51.05
2023-03-30T13:17:08.171Z,51.18
2023-03-30T13:19:37.348Z,51.50
2023-03-30T13:22:13.192Z,51.44
2023-03-30T13:24:47.098Z,51.67
2023-03-30T13:27:14.028Z,51.55
2023-03-30T13:29:42.540Z,51.23
2023-03-30T13:32:23.471Z,51.29
2023-03-30T13:35:07.367Z,51.62
2023-03-30T13:37:53.137Z,51.75
2023-03-30T13:40:41.527Z,51.62
2023-03-30T13:43:50.908Z,51.96
2023-03-30T13:46:42.165Z,51.90
2023-03-30T13:49:18.537Z,51.79
2023-03-30T13:51:46.383Z,51.55
2023-03-30T13:54:30.823Z,51.67
2023-03-30T13:57:09.960Z,52.03
2023-03-30T13:59:43.616Z,52.51
2023-03-30T14:02:17.646Z,53.26
2023-03-30T14:04:45.276Z,53.48
2023-03-30T14:07:24.191Z,54.24
2023-03-30T14:10:16.920Z,54.89
2023-03-30T14:12:46.305Z,54.83
2023-03-30T14:15:42.600Z,55.38
2023-03-30T14:18:20.627Z,55.46
2023-03-30T14:21:00.839Z,55.56
2023-03-30T14:23:45.530Z,55.47
2023-03-30T14:26:28.058Z,56.08
2023-03-30T14:28:59.620Z,56.20
2023-03-30T14:31:27.409Z,56.45
2023-03-30T14:33:55.236Z,57.02
2023-03-30T14:36:22.855Z,57.17
2023-03-30T14:38:52.968Z,56.97
2023-03-30T14:41:28.514Z,57.41
2023-03-30T14:44:06.354Z,57.69
2023-03-30T14:46:47.013Z,57.88
2023-03-30T14:49:21.617Z,57.92
2023-03-30T14:51:51.935Z,57.08
2023-03-30T14:54:24.492Z,57.75
2023-03-30T14:57:00.273Z,58.00
2023-03-30T14:59:29.053Z,58.82
2023-03-30T15:01:56.948Z,59.40
2023-03-30T15:04:37.663Z,59.54
2023-03-30T15:07:05.438Z,60.13
2023-03-30T15:09:38.600Z,60.40
2023-03-30T15:12:06.405Z,60.65
2023-03-30T15:14:39.270Z,60.92
2023-03-30T15:17:18.178Z,61.09
2023-03-30T15:19:47.262Z,60.84
2023-03-30T15:22:35.081Z,61.66
2023-03-30T15:25:08.169Z,62.31
2023-03-30T15:27:37.739Z,62.76
2023-03-30T15:30:06.952Z,62.99
2023-03-30T15:32:39.205Z,63.14
2023-03-30T15:35:26.166Z,64.44
2023-03-30T15:38:11.068Z,64.26
2023-03-30T15:40:48.133Z,64.67
2023-03-30T15:43:27.481Z,64.19
2023-03-30T15:46:07.094Z,64.11
2023-03-30T15:48:53.673Z,64.38
2023-03-30T15:51:37.313Z,64.83
2023-03-30T15:54:40.395Z,65.29
2023-03-30T15:57:21.313Z,65.58
2023-03-30T16:00:01.442Z,65.83
2023-03-30T16:02:46.319Z,66.58
2023-03-30T16:05:20.867Z,65.83
2023-03-30T16:07:49.044Z,66.23
2023-03-30T16:10:32.639Z,66.65
2023-03-30T16:13:01.395Z,67.22
2023-03-30T16:15:31.954Z,66.97
2023-03-30T16:17:59.373Z,67.09
2023-03-30T16:20:30.757Z,67.50
2023-03-30T16:22:58.309Z,66.22
2023-03-30T16:25:37.811Z,65.80
2023-03-30T16:28:17.299Z,66.05
2023-03-30T16:30:47.965Z,66.61
2023-03-30T16:33:15.025Z,66.82
2023-03-30T16:35:42.137Z,66.66
2023-03-30T16:38:19.012Z,66.62
2023-03-30T16:40:54.203Z,66.96
2023-03-30T16:43:21.490Z,66.83
2023-03-30T16:45:48.682Z,66.80
2023-03-30T16:48:16.444Z,66.59
2023-03-30T16:50:46.670Z,66.88
2023-03-30T16:53:14.033Z,66.73
2023-03-30T16:55:41.745Z,66.98
2023-03-30T16:58:13.807Z,66.82
2023-03-30T17:00:48.596Z,66.95
2023-03-30T17:03:16.046Z,67.46
2023-03-30T17:05:51.468Z,67.46
2023-03-30T17:08:29.341Z,67.43
2023-03-30T17:11:04.944Z,67.48
2023-03-30T17:13:32.675Z,67.60
2023-03-30T17:16:01.233Z,68.00
2023-03-30T17:18:28.958Z,68.70
2023-03-30T17:20:58.721Z,69.08
2023-03-30T17:23:28.734Z,69.22
2023-03-30T17:25:58.393Z,68.75
2023-03-30T17:28:34.819Z,69.27
2023-03-30T17:31:06.602Z,69.60
2023-03-30T17:33:36.216Z,69.75
2023-03-30T17:36:22.973Z,69.74
2023-03-30T17:38:51.393Z,69.87
2023-03-30T17:41:19.829Z,70.12
2023-03-30T17:43:48.378Z,70.47
2023-03-30T17:46:18.816Z,70.61
2023-03-30T17:48:46.481Z,70.82
2023-03-30T17:51:13.508Z,71.18
2023-03-30T17:53:40.604Z,71.31
2023-03-30T17:56:07.905Z,70.78
2023-03-30T17:58:36.698Z,70.60
2023-03-30T18:01:08.284Z,70.69
2023-03-30T18:03:38.478Z,70.27
2023-03-30T18:06:06.523Z,70.89
2023-03-30T18:08:33.584Z,71.27
2023-03-30T18:11:01.678Z,71.88
2023-03-30T18:13:30.583Z,72.41
2023-03-30T18:16:00.145Z,73.04
2023-03-30T18:18:30.928Z,74.00
2023-03-30T18:21:03.091Z,74.74
2023-03-30T18:23:34.968Z,75.02
2023-03-30T18:26:09.265Z,74.76
2023-03-30T18:28:40.555Z,75.32
2023-03-30T18:31:08.932Z,75.59
2023-03-30T18:33:36.259Z,76.86
2023-03-30T18:36:07.576Z,77.66
2023-03-30T18:38:35.363Z,78.11
2023-03-30T18:41:02.447Z,78.62
2023-03-30T18:43:29.645Z,79.34
2023-03-30T18:46:02.595Z,79.39
2023-03-30T18:48:30.957Z,80.38
2023-03-30T18:50:58.477Z,81.79
2023-03-30T18:53:28.374Z,83.31
2023-03-30T18:56:00.733Z,83.85
2023-03-30T18:58:33.633Z,84.22
2023-03-30T19:01:01.491Z,84.13
2023-03-30T19:03:30.136Z,85.25
2023-03-30T19:05:57.412Z,85.23
2023-03-30T19:08:26.540Z,85.39
2023-03-30T19:10:57.279Z,85.64
2023-03-30T19:13:26.491Z,86.37
2023-03-30T19:15:54.091Z,86.78
2023-03-30T19:18:21.607Z,86.62
2023-03-30T19:20:50.145Z,87.55
2023-03-30T19:23:18.752Z,88.93
2023-03-30T19:25:46.117Z,89.94
2023-03-30T19:28:14.693Z,91.13
2023-03-30T19:30:41.974Z,92.66
2023-03-30T19:33:12.850Z,93.97
2023-03-30T19:35:41.614Z,94.18
2023-03-30T19:38:09.677Z,93.99
2023-03-30T19:40:41.563Z,94.51
2023-03-30T19:43:09.427Z,94.70
2023-03-30T19:45:36.801Z,94.93
2023-03-30T19:48:04.237Z,94.26
2023-03-30T19:50:31.735Z,95.03
2023-03-30T19:52:59.514Z,95.66
2023-03-30T19:55:27.161Z,96.15
2023-03-30T19:57:54.575Z,96.62
2023-03-30T20:00:21.942Z,97.15
2023-03-30T20:02:53.155Z,97.26
2023-03-30T20:05:24.725Z,97.55
2023-03-30T20:07:52.798Z,96.85
2023-03-30T20:10:24.582Z,97.87
2023-03-30T20:12:53.184Z,98.50
2023-03-30T20:15:22.906Z,99.19
2023-03-30T20:17:50.215Z,99.18
2023-03-30T20:20:22.891Z,98.32
2023-03-30T20:22:53.474Z,98.37
2023-03-30T20:25:24.845Z,99.29
2023-03-30T20:27:52.765Z,99.06
2023-03-30T20:30:21.194Z,99.70
2023-03-30T20:33:03.804Z,100.00
2023-03-30T20:35:37.993Z,100.00
2023-03-30T20:38:06.332Z,100.00
2023-03-30T20:40:33.395Z,100.00
2023-03-30T20:43:03.620Z,100.00
2023-03-30T20:45:31.954Z,100.00
2023-03-30T20:48:06.018Z,100.00
2023-03-30T20:50:33.966Z,100.00
2023-03-30T20:53:01.595Z,100.00
2023-03-30T20:55:28.594Z,100.00
2023-03-30T20:57:55.666Z,100.00
2023-03-30T21:00:23.307Z,100.00
2023-03-30T21:02:50.359Z,100.00
2023-03-30T21:05:17.536Z,100.00
2023-03-30T21:07:47.269Z,100.00
2023-03-30T21:10:16.365Z,100.00
2023-03-30T21:12:43.530Z,100.00
2023-03-30T21:15:11.184Z,100.00
2023-03-30T21:17:38.584Z,100.00
2023-03-30T21:20:09.233Z,100.00
2023-03-30T21:22:36.555Z,100.00
2023-03-30T21:25:03.957Z,100.00
2023-03-30T21:27:31.022Z,100.00
2023-03-30T21:29:58.201Z,100.00
2023-03-30T21:32:25.440Z,100.00
2023-03-30T21:34:52.617Z,100.00
2023-03-30T21:37:19.700Z,100.00
2023-03-30T21:39:46.891Z,100.00
2023-03-30T21:42:13.974Z,100.00
2023-03-30T21:44:40.992Z,100.00
2023-03-30T21:47:08.035Z,100.00
2023-03-30T21:49:37.268Z,100.00
2023-03-30T21:52:04.595Z,100.00
2023-03-30T21:54:31.753Z,100.00
2023-03-30T21:56:58.837Z,100.00
2023-03-30T21:59:25.946Z,100.00
2023-03-30T22:01:53.166Z,100.00
2023-03-30T22:04:20.822Z,100.00
2023-03-30T22:06:47.942Z,100.00
2023-03-30T22:09:15.020Z,100.00
2023-03-30T22:11:42.657Z,100.00
2023-03-30T22:14:09.692Z,100.00
2023-03-30T22:16:36.905Z,100.00
2023-03-30T22:19:04.872Z,100.00
2023-03-30T22:21:35.607Z,100.00
2023-03-30T22:24:07.684Z,100.00
2023-03-30T22:26:36.290Z,100.00
2023-03-30T22:29:04.594Z,100.00
2023-03-30T22:31:32.774Z,100.00
2023-03-30T22:33:59.880Z,100.00
2023-03-30T22:36:30.919Z,100.00
2023-03-30T22:39:00.267Z,100.00
2023-03-30T22:41:28.357Z,100.00
2023-03-30T22:43:57.581Z,100.00
2023-03-30T22:46:27.090Z,100.00
2023-03-30T22:48:55.660Z,100.00
2023-03-30T22:51:27.672Z,100.00
2023-03-30T22:53:59.405Z,100.00
2023-03-30T22:56:30.762Z,100.00
2023-03-30T22:59:01.380Z,100.00
2023-03-30T23:01:32.092Z,100.00
2023-03-30T23:03:59.764Z,100.00
2023-03-30T23:06:26.998Z,100.00
2023-03-30T23:08:54.579Z,100.00
2023-03-30T23:11:21.673Z,100.00
2023-03-30T23:13:49.195Z,100.00
2023-03-30T23:16:16.218Z,100.00
2023-03-30T23:18:43.268Z,100.00
2023-03-30T23:21:11.156Z,100.00
2023-03-30T23:23:38.550Z,100.00
2023-03-30T23:26:09.742Z,100.00
2023-03-30T23:28:42.522Z,100.00
2023-03-30T23:31:15.911Z,100.00
2023-03-30T23:33:43.675Z,100.00
2023-03-30T23:36:17.353Z,100.00
2023-03-30T23:38:45.031Z,100.00
2023-03-30T23:41:19.074Z,100.00
2023-03-30T23:43:47.072Z,100.00
2023-03-30T23:46:15.571Z,100.00
2023-03-30T23:48:43.172Z,100.00
2023-03-30T23:51:10.701Z,100.00
2023-03-30T23:53:41.720Z,100.00
2023-03-30T23:56:17.790Z,100.00
2023-03-30T23:58:46.146Z,100.00
